Sisters, OR

4:07 AM PST on March 04, 2015 (GMT -0800)
MesoWest THREE CREEKS MEADOW OR US SNOTEL | Change Station
CLOSE
Current Station
Personal Weather Station
Location: Sisters, OR
Elevation: 5649 ft
Nearby Weather Stations

Elev 5649 ft 44.14 °N, 121.64 °W | Updated 14 hours ago

Clear
Clear
23 °F
Feels Like 23 °F
N
3
Wind Variable Wind from SW
Gusts mph

Today
High -- | Low -- °F
--% Chance of Precip.
Yesterday
High -- | Low -- °F
Precip. -- in
6:38 AM 5:58 PM
Waxing Gibbous, 99% visible
Pressure 30.25 in
Visibility 10.0 miles
Clouds Clear
Dew Point 16 °F
Humidity 76%
Rainfall 0.00 in
Snow Depth Not available.
UV 0 out of 12
Pollen 3.00 out of 12
Air Quality Not available.
Flu Activity Not available.
METAR KRDM 041156Z AUTO 16003KT 10SM CLR M07/M11 A3018 RMK AO2 SLP241 T10721106 11044 21100 58001

More Conditions Fewer Conditions

Pressure 30.25 in
Visibility 10.0 miles
Clouds Clear
Dew Point 16 °F
Humidity 76%
Rainfall 0.00 in
Snow Depth Not available.
UV 0 out of 12
Pollen 3.00 out of 12
Air Quality Not available.
Flu Activity Not available.
METAR KRDM 041156Z AUTO 16003KT 10SM CLR M07/M11 A3018 RMK AO2 SLP241 T10721106 11044 21100 58001

More Conditions Fewer Conditions

10-Day Weather Forecast

Almanac

Astronomy

Mar. 04, 2015 Rise Set
Actual Time
Civil Twilight
Nautical Twilight
Astronomical Twilight
Moon
Length of Visible Light
Length of Day
Tomorrow will be .
, % of the Moon is Illuminated

Today's Extremes

State Highs State Lows

Community

WunderPhotos

Upload Photos

1,802,436 photos uploaded!

WunderBlogs® & News

Nearby

Air Quality

  Air Quality AQ Index Pollutant
Not available.

Snow Depth

Station Depth Elevation

Earthquake Activity

City Distance Mag. Time & Date
Minimum magnitude displayed is 2.5.

Coastal Water Temperatures

Place Temperature

Nearby Weather Stations